메인 페이지
METAR-TAF:

METAR-TAF

공항 :

킨샤사, 콩고

위도: 04-23S, 경도: 015-26E, 고도: 309m

현재 날씨관측

예보는 1 시간 48분 전, 15:00시(UTC)에 발표되었습니다.
서북서8kt
온도 29°C
습도 70%
기압 1011 hPa
시정: 6000m
고도 2200ft 상공 구름 조금

METAR: FZAA 311500Z 30008KT 6000 FEW022 29/23 Q1011 NOSIG

시각: 17:48 (16:48 UTC)

예보

예보는 5 시간 48분 전, 11:00시(UTC)에 발표되었습니다.
예보 대상 시간: 31일 12시부터 01일 18시까지 (UTC)
8kt
시정: 7000m
고도 1800ft 상공 구름 보통
일시적
01일 05시부터 01일 09시까지 (UTC)
시정: 4000m
고도 1500ft 상공 흐림
박무
전환 중
01일 12시부터 01일 14시까지 (UTC)
북북서10kt
고도 2000ft 상공 구름 조금
고도 3000ft 상공 구름 조금, 적란운.

TAF: FZAA 311100Z 3112/0118 27008KT 7000 SCT018 TEMPO 0105/0109 4000 BR OVC015 BECMG 0112/0114 33010KT FEW020 FEW030CB

4,000개 이상의 공항 관측 자료 및 예보 (METAR 및 TAF 보고).

지도상에서 검색 가능한 기상관측소가 노란 점과 빨간 점으로 표시되어 있습니다.

기상관측소 명을 보려면 표시 위로 마우스를 이동하세요.

날씨 관측과 예보를 보려면 클릭하세요.

지도 변경 : 확대하려면 엑스 표시가 있는 녹색 버튼, 축소하려면 빼기 표시가 있는 녹색 버튼, 다음 페이지의 지도를 보려면 녹색 화살표를 클릭하세요.


METAR-TAF: